x

Buoy E01 - Central Maine Shelf (44032) Wave Buoy

12:04 - Fri 1st Jul 2016 All times are EDT. -4 hours from GMT.

  • Sig Wave height 3.6ft
  • Peak Period 8s
  • Wind
    4mph, 7mph gusts
  • Sea Temp 63°f
  • Air Temp 65°f
  • Sea Pressure 1014.9mb
  • Buoy E01 - Central Maine Shelf
  • Buoy E01 - Central Maine Shelf

More Historic Weather Station data

Upgrade to MSW Pro to gain access to the past 30 days of data for over 8000 Wavebouys and Weather Stations around the globe.

Join Pro

Comparision Forecast

View Surf forecast
   
ven. 07/01 12:04 3.5ft 8s 4 7 mph 1014.9mb 63f 65f
11:04 3.5ft 8s 4 7 mph 1014.9mb 61f 64f
10:04 4ft 8s 4 7 mph 1014.7mb 61f 64f
9:04 4.5ft 11s 7 9 mph 1014.9mb 61f 63f
8:04 4.5ft 8s 4 7 mph 1015.1mb 61f 62f
7:04 4.5ft 8s 4
mph
1015mb 61f 62f
6:04 4.5ft 8s 2 4 mph 1015mb 61f 62f
5:04 4ft 8s 2
mph
1014.9mb 60f 61f
4:04 4.5ft 8s 2 4 mph 1014.9mb 60f 62f
3:04 4.5ft 8s 2 4 mph 1014.8mb 60f 62f
2:04 4ft 8s 4 7 mph 1015.1mb 61f 63f
1:04 3ft 8s 9
mph
1015mb 61f 63f
12:04 3.5ft 8s 11 13 mph 1014.6mb 61f 64f
jeu. 06/30 11:04 3.5ft 8s 13 16 mph 1014.5mb 61f 65f
10:04 3ft 6s 13 16 mph 1014.4mb 61f 65f
9:04 3ft 6s 9 11 mph 1014.1mb 62f 65f
8:04 3.5ft 8s 9
mph
1013.6mb 62f 64f
6:04 4.5ft 8s 11 13 mph 1012.8mb 62f 65f
5:04 4ft 8s 13 16 mph 1012.7mb 61f 65f
4:04 5ft 6s 9 13 mph 1012.7mb 62f 65f
3:04 3.5ft 11s 9 11 mph 1012.5mb 62f 64f
2:04 3ft 8s 9 11 mph 1012.4mb 62f 64f
1:04 3ft 8s 7 9 mph 1012.7mb 62f 63f
12:04 2.5ft 8s 9
mph
1012.8mb 61f 62f
11:04 2.5ft 8s 9 11 mph 1012.5mb 60f 62f
10:04 2.5ft 8s 9
mph
1012.4mb 60f 62f
9:04 3ft 8s 9
mph
1012mb 60f 61f
8:04 3ft 8s 7 9 mph 1011.8mb 60f 60f
7:04 3ft 6s 4 7 mph 1011.2mb 60f 59f
6:04 3.5ft 8s 7 9 mph 1010.8mb 60f 59f
5:04 3.5ft 8s 2 4 mph 1010.6mb 60f 60f
4:04 3.5ft 8s 2 4 mph 1010.1mb 60f 60f
3:04 3.5ft 11s 2 4 mph 1009.9mb 60f 60f
2:04 3ft 11s 4 7 mph 1010.3mb 60f 60f
1:04 3ft 8s 2
mph
1010.4mb 60f 60f
12:04 2.5ft 8s  -  2 mph 1010.5mb 60f 61f
mer. 06/29 11:04 2.5ft 8s 4
mph
1010.4mb 60f 61f
10:04 2.5ft 6s 7
mph
1010.2mb 60f 61f
9:04 2.5ft 8s 7
mph
1010mb 60f 60f
8:04 3ft 8s 7
mph
1010.1mb 60f 61f
7:04 3.5ft 8s 9 11 mph 1009.7mb 60f 62f
6:04 3ft 8s 4 7 mph 1009mb 61f 62f
5:04 3ft 8s 4 7 mph 1009.7mb 60f 62f
4:04 3ft 8s 9
mph
1009.8mb 61f 62f
3:04 2.5ft 8s 7 9 mph 1010mb 60f 62f
2:04 3ft 8s 4 7 mph 1010mb 60f 63f
1:04 2.5ft 8s 7
mph
1010.5mb 60f 62f
12:04 2ft 4s 11
mph
1010.8mb 60f 62f
11:04 2.5ft 8s 11 13 mph 1010.9mb 59f 61f
10:04 3ft 8s 9 11 mph 1010.9mb 59f 62f
9:04 2.5ft 8s 11 13 mph 1010.8mb 59f 62f
8:04 2.5ft 4s 11 13 mph 1010.9mb 59f 62f
7:04 3ft 8s 11 13 mph 1011mb 59f 61f
6:04 3ft 8s 11 13 mph 1011.1mb 59f 61f
5:04 2.5ft 8s 11 13 mph 1010.9mb 59f 61f
4:04 2.5ft 8s 9 11 mph 1011.2mb 59f 61f
3:04 2.5ft 8s 9
mph
1011.3mb 59f 61f
2:04 2.5ft 8s 9 11 mph 1011.9mb 59f 61f
1:04 2.5ft 8s 11 13 mph 1011.9mb 59f 61f
12:04 2.5ft 8s 11 13 mph 1012.4mb 59f 61f
mar. 06/28 11:04 2.5ft 8s 9 11 mph 1012.8mb 59f 61f
10:04 2.5ft 4s 9 11 mph 1012.8mb 59f 62f
9:04 3ft 8s 11 13 mph 1012.9mb 59f 62f
8:04 3ft 5s 11 13 mph 1012.9mb 59f 62f
7:04 2.5ft 5s 11 13 mph 1012.7mb 59f 62f
6:04 3ft 5s 11 13 mph 1012.5mb 59f 63f
5:04 3.5ft 8s 11 13 mph 1012.8mb 59f 62f
4:04 3.5ft 8s 11 13 mph 1013mb 59f 62f
3:04 3.5ft 5s 11
mph
1013.6mb 59f 62f
2:04 3.5ft 5s 13 16 mph 1013.8mb 59f 61f
1:04 3ft 5s 11 13 mph 1014.5mb 59f 61f
12:04 3.5ft 5s 11
mph
1015.1mb 59f 61f
11:04 3.5ft 5s 13
mph
1014.9mb 59f 62f
10:04 4ft 5s 16
mph
1014.9mb 59f 62f
9:04 4.5ft 5s 16 18 mph 1014.7mb 58f 62f
8:04 4.5ft 5s 18 22 mph 1014.2mb 58f 62f
7:04 4ft 5s 20 29 mph 1013.9mb 58f 62f
6:04 4ft 5s 13 16 mph 1013.9mb 58f 61f
5:04 5ft 5s 16 18 mph 1013.9mb 58f 62f
4:04 5.5ft 6s 18 20 mph 1013.3mb 58f 62f
3:04 6ft 6s 20 22 mph 1013.3mb 58f 63f
2:04 6ft 6s 20 27 mph 1013.5mb 58f 63f
1:04 6ft 6s 20 25 mph 1013.8mb 59f 63f
12:04 6.5ft 6s 22 25 mph 1013.9mb 59f 64f
lun. 06/27 11:04 6ft 6s 22 25 mph 1013.9mb 60f 64f
10:04 5.5ft 5s 20 25 mph 1014.3mb 59f 63f
9:04 5.5ft 6s 18 22 mph 1014.1mb 59f 63f
8:04 6ft 5s 20 25 mph 1013.8mb 60f 63f
7:04 5ft 5s 20 25 mph 1013.7mb 59f 63f
6:04 5ft 5s 20 25 mph 1013.8mb 60f 64f